createdAt,value
2019-02-24T00:00:30.976Z,24.87
2019-02-24T00:03:36.514Z,17.70
2019-02-24T00:06:40.124Z,22.07
2019-02-24T00:09:43.725Z,23.57
2019-02-24T00:12:47.215Z,18.23
2019-02-24T00:15:50.684Z,17.53
2019-02-24T00:18:54.084Z,13.73
2019-02-24T00:21:57.628Z,15.87
2019-02-24T00:25:01.089Z,24.10
2019-02-24T00:28:07.092Z,24.57
2019-02-24T00:31:09.836Z,25.33
2019-02-24T00:34:13.341Z,22.37
2019-02-24T00:37:16.880Z,22.57
2019-02-24T00:40:20.535Z,31.10
2019-02-24T00:43:24.080Z,31.27
2019-02-24T00:46:27.558Z,24.80
2019-02-24T00:49:30.951Z,28.63
2019-02-24T00:52:34.389Z,24.97
2019-02-24T00:55:37.848Z,24.50
2019-02-24T00:58:41.288Z,24.77
2019-02-24T01:02:10.768Z,24.13
2019-02-24T01:05:14.172Z,26.53
2019-02-24T01:08:17.564Z,30.87
2019-02-24T01:11:20.964Z,38.80
2019-02-24T01:14:24.472Z,34.50
2019-02-24T01:17:27.908Z,43.43
2019-02-24T01:20:31.390Z,40.93
2019-02-24T01:23:34.776Z,36.17
2019-02-24T01:26:38.275Z,44.20
2019-02-24T01:29:41.672Z,39.97
2019-02-24T01:32:45.067Z,35.77
2019-02-24T01:35:48.476Z,33.30
2019-02-24T01:38:51.770Z,30.03
2019-02-24T01:41:55.207Z,35.53
2019-02-24T01:44:58.691Z,29.97
2019-02-24T01:48:02.112Z,33.87
2019-02-24T01:51:05.567Z,32.30
2019-02-24T01:54:08.976Z,35.47
2019-02-24T01:57:12.472Z,28.77
2019-02-24T02:00:16.076Z,34.90
2019-02-24T02:03:19.584Z,29.17
2019-02-24T02:06:23.103Z,31.63
2019-02-24T02:09:27.512Z,36.87
2019-02-24T02:12:30.911Z,30.97
2019-02-24T02:15:34.308Z,34.17
2019-02-24T02:18:37.807Z,40.17
2019-02-24T02:21:41.210Z,30.93
2019-02-24T02:24:46.313Z,30.57
2019-02-24T02:27:49.720Z,35.47
2019-02-24T02:30:53.144Z,32.13
2019-02-24T02:33:56.592Z,26.93
2019-02-24T02:37:00.053Z,28.67
2019-02-24T02:40:03.588Z,35.20
2019-02-24T02:43:08.153Z,26.83
2019-02-24T02:46:11.580Z,31.60
2019-02-24T02:49:15.016Z,32.13
2019-02-24T02:52:18.584Z,32.97
2019-02-24T02:55:21.987Z,31.27
2019-02-24T02:58:25.524Z,31.40
2019-02-24T03:01:28.988Z,29.03
2019-02-24T03:04:32.533Z,36.63
2019-02-24T03:07:42.956Z,29.90
2019-02-24T03:10:46.461Z,33.30
2019-02-24T03:13:49.999Z,30.77
2019-02-24T03:16:53.565Z,34.73
2019-02-24T03:19:57.004Z,32.77
2019-02-24T03:23:00.616Z,30.87
2019-02-24T03:26:04.071Z,33.50
2019-02-24T03:29:07.616Z,34.73
2019-02-24T03:32:11.181Z,32.77
2019-02-24T03:35:14.748Z,32.17
2019-02-24T03:38:18.329Z,29.73
2019-02-24T03:41:21.892Z,30.87
2019-02-24T03:44:25.353Z,35.83
2019-02-24T03:47:28.799Z,32.93
2019-02-24T03:50:31.998Z,31.37
2019-02-24T03:53:35.528Z,30.00
2019-02-24T03:56:39.101Z,30.90
2019-02-24T03:59:42.532Z,26.23
2019-02-24T04:02:46.001Z,31.07
2019-02-24T04:05:49.401Z,35.33
2019-02-24T04:08:52.840Z,25.80
2019-02-24T04:11:56.399Z,25.83
2019-02-24T04:14:59.940Z,30.47
2019-02-24T04:18:03.413Z,27.43
2019-02-24T04:21:06.904Z,27.10
2019-02-24T04:24:10.348Z,27.90
2019-02-24T04:27:13.813Z,30.93
2019-02-24T04:30:17.249Z,36.83
2019-02-24T04:33:20.714Z,33.70
2019-02-24T04:36:24.121Z,25.90
2019-02-24T04:39:27.552Z,29.00
2019-02-24T04:42:31.011Z,27.07
2019-02-24T04:45:34.416Z,28.00
2019-02-24T04:48:38.224Z,28.57
2019-02-24T04:51:41.627Z,25.50
2019-02-24T04:54:46.092Z,30.33
2019-02-24T04:57:49.565Z,26.67
2019-02-24T05:00:52.949Z,25.13
2019-02-24T05:03:56.452Z,23.97
2019-02-24T05:06:59.851Z,23.50
2019-02-24T05:10:03.301Z,20.23
2019-02-24T05:13:06.755Z,23.50
2019-02-24T05:16:10.156Z,27.70
2019-02-24T05:19:13.556Z,23.70
2019-02-24T05:22:16.952Z,22.53
2019-02-24T05:25:20.460Z,24.70
2019-02-24T05:28:23.961Z,25.83
2019-02-24T05:31:27.364Z,21.57
2019-02-24T05:34:30.900Z,20.03
2019-02-24T05:37:34.405Z,19.87
2019-02-24T05:40:37.865Z,23.03
2019-02-24T05:43:41.264Z,26.60
2019-02-24T05:46:44.765Z,20.87
2019-02-24T05:49:48.272Z,22.17
2019-02-24T05:52:51.711Z,22.07
2019-02-24T05:55:55.276Z,24.83
2019-02-24T05:58:58.788Z,18.83
2019-02-24T06:02:02.280Z,22.07
2019-02-24T06:05:05.737Z,22.97
2019-02-24T06:08:09.136Z,21.07
2019-02-24T06:11:12.629Z,22.50
2019-02-24T06:14:16.037Z,22.07
2019-02-24T06:17:19.436Z,21.30
2019-02-24T06:20:22.880Z,25.23
2019-02-24T06:23:26.375Z,22.13
2019-02-24T06:26:30.298Z,19.70
2019-02-24T06:29:33.996Z,22.73
2019-02-24T06:32:37.456Z,18.70
2019-02-24T06:35:40.900Z,21.03
2019-02-24T06:38:44.504Z,20.63
2019-02-24T06:41:47.964Z,27.40
2019-02-24T06:44:51.596Z,18.50
2019-02-24T06:47:55.074Z,19.60
2019-02-24T06:51:01.433Z,21.40
2019-02-24T06:54:04.884Z,23.30
2019-02-24T06:57:08.380Z,22.13
2019-02-24T07:00:14.411Z,23.23
2019-02-24T07:03:17.132Z,27.50
2019-02-24T07:06:20.732Z,21.73
2019-02-24T07:09:24.238Z,25.23
2019-02-24T07:12:27.744Z,19.33
2019-02-24T07:15:31.236Z,20.43
2019-02-24T07:18:35.052Z,27.60
2019-02-24T07:21:38.651Z,18.87
2019-02-24T07:24:42.116Z,20.73
2019-02-24T07:27:45.655Z,17.77
2019-02-24T07:30:49.119Z,23.90
2019-02-24T07:33:52.548Z,20.40
2019-02-24T07:36:55.964Z,21.03
2019-02-24T07:39:59.524Z,20.33
2019-02-24T07:43:02.963Z,23.03
2019-02-24T07:46:06.428Z,23.00
2019-02-24T07:49:09.927Z,21.23
2019-02-24T07:52:13.368Z,21.97
2019-02-24T07:55:16.832Z,22.93
2019-02-24T07:58:21.198Z,27.77
2019-02-24T08:01:24.655Z,22.83
2019-02-24T08:04:27.958Z,25.50
2019-02-24T08:07:31.392Z,21.70
2019-02-24T08:10:34.860Z,25.67
2019-02-24T08:13:38.296Z,25.73
2019-02-24T08:16:41.756Z,23.37
2019-02-24T08:19:45.160Z,28.37
2019-02-24T08:22:48.701Z,22.77
2019-02-24T08:25:52.160Z,22.77
2019-02-24T08:28:55.662Z,23.67
2019-02-24T08:32:00.087Z,20.20
2019-02-24T08:35:03.388Z,22.17
2019-02-24T08:38:06.928Z,22.67
2019-02-24T08:41:10.399Z,20.37
2019-02-24T08:44:13.788Z,20.93
2019-02-24T08:47:17.292Z,20.07
2019-02-24T08:50:20.696Z,18.23
2019-02-24T08:53:24.128Z,17.73
2019-02-24T08:56:27.592Z,17.83
2019-02-24T08:59:31.044Z,18.57
2019-02-24T09:02:34.498Z,18.07
2019-02-24T09:05:37.900Z,17.40
2019-02-24T09:08:41.452Z,17.73
2019-02-24T09:11:44.957Z,19.93
2019-02-24T09:14:48.407Z,18.77
2019-02-24T09:17:51.806Z,15.13
2019-02-24T09:20:55.243Z,18.90
2019-02-24T09:23:58.812Z,14.40
2019-02-24T09:27:02.414Z,16.02
2019-02-24T09:30:06.120Z,16.70
2019-02-24T09:33:09.560Z,14.75
2019-02-24T09:36:13.020Z,15.58
2019-02-24T09:39:16.627Z,17.37
2019-02-24T09:42:20.073Z,17.10
2019-02-24T09:45:23.636Z,17.87
2019-02-24T09:48:27.138Z,23.98
2019-02-24T09:51:30.636Z,18.48
2019-02-24T09:54:34.041Z,17.90
2019-02-24T09:57:37.436Z,13.43
2019-02-24T10:00:40.839Z,18.20
2019-02-24T10:03:44.140Z,17.92
2019-02-24T10:06:47.640Z,16.90
2019-02-24T10:09:51.043Z,17.95
2019-02-24T10:12:54.480Z,18.32
2019-02-24T10:15:57.940Z,14.85
2019-02-24T10:19:01.579Z,20.80
2019-02-24T10:22:05.084Z,18.77
2019-02-24T10:25:08.654Z,19.67
2019-02-24T10:28:12.301Z,17.10
2019-02-24T10:31:19.848Z,16.95
2019-02-24T10:34:21.148Z,13.75
2019-02-24T10:37:25.563Z,16.95
2019-02-24T10:40:29.027Z,15.95
2019-02-24T10:43:32.496Z,14.60
2019-02-24T10:46:35.933Z,16.02
2019-02-24T10:49:39.474Z,14.03
2019-02-24T10:52:43.084Z,15.48
2019-02-24T10:55:46.643Z,15.13
2019-02-24T10:58:50.085Z,13.32
2019-02-24T11:01:53.543Z,15.98
2019-02-24T11:04:57.048Z,12.20
2019-02-24T11:08:00.484Z,16.62
2019-02-24T11:11:03.955Z,11.63
2019-02-24T11:14:07.924Z,12.63
2019-02-24T11:17:11.390Z,12.25
2019-02-24T11:20:15.075Z,10.55
2019-02-24T11:23:18.515Z,11.03
2019-02-24T11:26:22.180Z,9.68
2019-02-24T11:29:25.712Z,8.73
2019-02-24T11:32:29.289Z,11.18
2019-02-24T11:35:32.684Z,7.58
2019-02-24T11:38:36.227Z,9.73
2019-02-24T11:41:39.788Z,10.03
2019-02-24T11:44:43.328Z,6.87
2019-02-24T11:47:46.797Z,7.75
2019-02-24T11:50:50.302Z,14.80
2019-02-24T11:53:53.740Z,10.15
2019-02-24T11:56:57.300Z,7.05
2019-02-24T12:00:00.813Z,11.18
2019-02-24T12:03:04.213Z,11.05
2019-02-24T12:06:07.661Z,7.87
2019-02-24T12:09:11.200Z,5.72
2019-02-24T12:12:14.665Z,9.15
2019-02-24T12:15:18.071Z,7.87
2019-02-24T12:18:21.604Z,7.65
2019-02-24T12:21:25.112Z,7.80
2019-02-24T12:24:28.818Z,7.15
2019-02-24T12:27:32.288Z,6.45
2019-02-24T12:30:35.680Z,11.18
2019-02-24T12:33:39.219Z,9.68
2019-02-24T12:36:42.789Z,6.42
2019-02-24T12:39:46.188Z,9.58
2019-02-24T12:42:49.590Z,7.37
2019-02-24T12:45:52.984Z,8.88
2019-02-24T12:48:56.528Z,9.08
2019-02-24T12:51:59.989Z,7.22
2019-02-24T12:55:03.392Z,8.15
2019-02-24T12:58:07.520Z,7.17
2019-02-24T13:01:11.212Z,9.40
2019-02-24T13:04:14.775Z,7.33
2019-02-24T13:07:18.216Z,6.45
2019-02-24T13:10:21.617Z,8.28
2019-02-24T13:13:25.020Z,7.55
2019-02-24T13:16:28.525Z,7.83
2019-02-24T13:19:31.956Z,9.18
2019-02-24T13:22:35.526Z,7.22
2019-02-24T13:25:39.036Z,8.80
2019-02-24T13:28:50.171Z,8.10
2019-02-24T13:31:47.880Z,5.75
2019-02-24T13:34:51.380Z,12.82
2019-02-24T13:37:54.976Z,8.23
2019-02-24T13:40:58.797Z,9.28
2019-02-24T13:44:02.905Z,7.03
2019-02-24T13:47:08.218Z,7.17
2019-02-24T13:50:17.412Z,7.78
2019-02-24T13:53:21.656Z,7.85
2019-02-24T13:56:28.498Z,8.78
2019-02-24T13:59:32.097Z,10.65
2019-02-24T14:02:36.386Z,6.17
2019-02-24T14:05:41.796Z,6.87
2019-02-24T14:08:45.260Z,7.87
2019-02-24T14:11:49.101Z,8.90
2019-02-24T14:14:52.612Z,9.35
2019-02-24T14:17:56.078Z,7.92
2019-02-24T14:20:59.624Z,9.53
2019-02-24T14:24:03.284Z,6.17
2019-02-24T14:27:06.833Z,7.80
2019-02-24T14:30:11.764Z,6.55
2019-02-24T14:33:15.944Z,7.33
2019-02-24T14:36:19.494Z,6.47
2019-02-24T14:39:23.149Z,5.72
2019-02-24T14:42:26.657Z,5.58
2019-02-24T14:45:30.200Z,6.87
2019-02-24T14:48:33.660Z,4.20
2019-02-24T14:51:37.220Z,5.83
2019-02-24T14:54:40.768Z,6.30
2019-02-24T15:12:25.569Z,9.40
2019-02-24T15:15:32.974Z,6.47
2019-02-24T15:18:34.008Z,6.10
2019-02-24T15:21:37.572Z,10.65
2019-02-24T15:24:41.012Z,10.28
2019-02-24T15:27:44.521Z,8.85
2019-02-24T15:30:48.179Z,10.08
2019-02-24T15:33:51.735Z,11.90
2019-02-24T15:36:55.291Z,11.93
2019-02-24T15:39:58.727Z,9.20
2019-02-24T15:43:02.232Z,8.60
2019-02-24T15:46:05.696Z,7.45
2019-02-24T15:49:09.244Z,8.98
2019-02-24T15:52:12.709Z,8.73
2019-02-24T15:55:16.248Z,7.60
2019-02-24T15:58:19.848Z,8.58
2019-02-24T16:01:23.412Z,7.72
2019-02-24T16:04:26.862Z,9.00
2019-02-24T16:07:30.723Z,11.53
2019-02-24T16:10:34.227Z,7.62
2019-02-24T16:13:37.775Z,10.43
2019-02-24T16:16:41.336Z,11.85
2019-02-24T16:19:44.875Z,17.50
2019-02-24T16:22:48.336Z,15.03
2019-02-24T16:25:51.835Z,15.10
2019-02-24T16:28:55.392Z,13.40
2019-02-24T16:31:58.843Z,14.23
2019-02-24T16:35:02.283Z,13.62
2019-02-24T16:38:05.961Z,15.38
2019-02-24T16:41:09.456Z,16.32
2019-02-24T16:44:12.996Z,15.90
2019-02-24T16:47:16.672Z,13.30
2019-02-24T16:50:20.267Z,17.35
2019-02-24T16:53:23.904Z,16.17
2019-02-24T16:56:27.376Z,17.90
2019-02-24T16:59:31.004Z,17.40
2019-02-24T17:02:36.278Z,28.70
2019-02-24T17:05:40.444Z,23.25
2019-02-24T17:08:52.056Z,25.45
2019-02-24T17:11:50.212Z,29.05
2019-02-24T17:14:54.116Z,22.45
2019-02-24T17:17:58.224Z,26.37
2019-02-24T17:21:02.296Z,39.78
2019-02-24T17:24:06.321Z,31.17
2019-02-24T17:27:10.303Z,27.90
2019-02-24T17:30:14.656Z,46.10
2019-02-24T17:33:18.726Z,99.67
2019-02-24T17:36:22.229Z,97.62
2019-02-24T17:39:25.775Z,87.55
2019-02-24T17:42:29.523Z,69.97
2019-02-24T17:45:33.744Z,81.90
2019-02-24T17:48:37.490Z,83.27
2019-02-24T17:51:41.582Z,76.70
2019-02-24T17:54:45.340Z,89.92
2019-02-24T17:57:49.167Z,74.58
2019-02-24T18:00:59.460Z,63.10
2019-02-24T18:04:03.580Z,55.90
2019-02-24T18:07:07.058Z,42.53
2019-02-24T18:10:10.636Z,56.95
2019-02-24T18:13:15.471Z,61.28
2019-02-24T18:16:19.180Z,53.95
2019-02-24T18:19:23.091Z,34.88
2019-02-24T18:22:27.168Z,25.20
2019-02-24T18:25:31.434Z,30.90
2019-02-24T18:28:35.684Z,32.73
2019-02-24T18:31:39.926Z,30.97
2019-02-24T18:34:44.433Z,25.60
2019-02-24T18:37:48.930Z,29.42
2019-02-24T18:41:01.072Z,35.10
2019-02-24T18:44:05.504Z,30.33
2019-02-24T18:47:10.074Z,29.40
2019-02-24T18:50:16.240Z,19.07
2019-02-24T18:53:20.489Z,21.02
2019-02-24T18:56:24.710Z,18.85
2019-02-24T18:59:29.300Z,19.30
2019-02-24T19:02:32.803Z,20.37
2019-02-24T19:05:37.866Z,21.07
2019-02-24T19:08:41.992Z,25.10
2019-02-24T19:11:46.065Z,28.12
2019-02-24T19:14:50.889Z,29.10
2019-02-24T19:17:55.007Z,21.73
2019-02-24T19:20:59.999Z,21.70
2019-02-24T19:24:04.413Z,26.10
2019-02-24T19:27:08.664Z,22.73
2019-02-24T19:30:13.671Z,22.58
2019-02-24T19:33:17.797Z,20.17
2019-02-24T19:36:21.712Z,122.78
2019-02-24T19:39:25.624Z,82.77
2019-02-24T19:42:31.913Z,77.90
2019-02-24T19:45:36.308Z,83.90
2019-02-24T19:48:42.214Z,82.33
2019-02-24T19:51:46.436Z,68.80
2019-02-24T19:54:50.781Z,61.98
2019-02-24T19:57:54.279Z,75.17
2019-02-24T20:00:58.508Z,89.40
2019-02-24T20:04:02.403Z,108.97
2019-02-24T20:07:06.873Z,54.93
2019-02-24T20:10:10.943Z,46.20
2019-02-24T20:13:15.137Z,27.93
2019-02-24T20:16:19.823Z,16.13
2019-02-24T20:19:23.678Z,15.97
2019-02-24T20:22:27.112Z,19.23
2019-02-24T20:25:31.395Z,16.10
2019-02-24T20:28:35.456Z,15.87
2019-02-24T20:31:41.403Z,14.67
2019-02-24T20:34:46.168Z,20.23
2019-02-24T20:37:50.216Z,24.93
2019-02-24T20:40:55.093Z,21.87
2019-02-24T20:43:59.448Z,19.77
2019-02-24T20:47:03.737Z,21.63
2019-02-24T20:50:09.142Z,25.37
2019-02-24T20:53:14.067Z,21.00
2019-02-24T20:56:18.628Z,19.67
2019-02-24T20:59:23.452Z,20.17
2019-02-24T21:02:27.627Z,17.47
2019-02-24T21:05:32.378Z,17.60
2019-02-24T21:08:36.663Z,15.80
2019-02-24T21:11:41.180Z,12.60
2019-02-24T21:14:45.372Z,14.80
2019-02-24T21:17:49.660Z,11.97
2019-02-24T21:20:54.174Z,11.73
2019-02-24T21:23:58.504Z,12.83
2019-02-24T21:27:03.568Z,12.93
2019-02-24T21:30:07.999Z,17.00
2019-02-24T21:33:12.516Z,16.07
2019-02-24T21:36:17.477Z,8.67
2019-02-24T21:39:20.997Z,12.97
2019-02-24T21:42:25.163Z,19.90
2019-02-24T21:45:29.071Z,73.23
2019-02-24T21:48:33.212Z,19.43
2019-02-24T21:51:37.064Z,14.77
2019-02-24T21:54:41.493Z,13.90
2019-02-24T21:57:45.148Z,20.60
2019-02-24T22:00:50.321Z,18.80
2019-02-24T22:03:53.924Z,17.83
2019-02-24T22:06:57.552Z,19.87
2019-02-24T22:10:01.569Z,15.40
2019-02-24T22:13:05.354Z,18.57
2019-02-24T22:16:08.997Z,19.40
2019-02-24T22:19:14.520Z,18.27
2019-02-24T22:22:18.559Z,20.63
2019-02-24T22:25:22.532Z,20.70
2019-02-24T22:28:26.743Z,13.00
2019-02-24T22:31:30.956Z,14.27
2019-02-24T22:34:35.052Z,20.60
2019-02-24T22:37:39.214Z,21.87
2019-02-24T22:40:42.905Z,13.33
2019-02-24T22:43:46.842Z,20.50
2019-02-24T22:46:50.716Z,19.43
2019-02-24T22:49:54.692Z,31.13
2019-02-24T22:52:58.326Z,25.13
2019-02-24T22:56:01.825Z,28.13
2019-02-24T22:59:05.363Z,28.43
2019-02-24T23:02:09.314Z,18.73
2019-02-24T23:05:14.843Z,17.90
2019-02-24T23:08:18.264Z,18.97
2019-02-24T23:11:21.768Z,20.77
2019-02-24T23:14:25.374Z,18.83
2019-02-24T23:17:28.867Z,24.63
2019-02-24T23:20:32.435Z,23.50
2019-02-24T23:23:35.940Z,18.47
2019-02-24T23:26:39.383Z,13.00
2019-02-24T23:29:42.843Z,15.77
2019-02-24T23:32:46.483Z,14.20
2019-02-24T23:35:49.949Z,13.73
2019-02-24T23:38:53.358Z,15.27
2019-02-24T23:41:56.895Z,13.27
2019-02-24T23:45:09.500Z,13.47
2019-02-24T23:48:05.740Z,17.93
2019-02-24T23:51:09.200Z,17.07
2019-02-24T23:54:12.601Z,13.90
2019-02-24T23:57:16.036Z,15.83
